Time;durP1;ratioP1;P1;durP2;ratioP2;P2;SDS_P1;SDS_P2;PMS_P1;PMS_P2;Temp;Humidity;BMP_temperature;BMP_pressure;BME280_temperature;BME280_humidity;BME280_pressure;Samples;Min_cycle;Max_cycle;Signal;HPM_P1;HPM_P2
2022/09/04 00:00:13;;;;;;;;;;;;;;;18.69;58.41;101307.50;5010292;28;20511;-58
2022/09/04 00:02:38;;;;;;;;;;;;;;;18.61;57.76;101303.16;5007598;28;19914;-56
2022/09/04 00:05:07;;;;;;;;;;;;;;;18.63;58.12;101298.44;5005983;28;19914;-57
2022/09/04 00:07:38;;;;;;;;;;;;;;;18.67;57.97;101298.81;5010378;28;19922;-57
2022/09/04 00:10:15;;;;;;;;;;;;;;;18.71;58.49;101306.25;5001524;28;19921;-58
2022/09/04 00:13:06;;;;;;;;;;;;;;;18.70;58.58;101309.16;5012828;28;19936;-58
2022/09/04 00:15:35;;;;;;;;;;;;;;;18.67;58.30;101306.91;4985477;28;20323;-57
2022/09/04 00:18:09;;;;;;;;;;;;;;;18.66;58.50;101311.44;5006636;28;20314;-58
2022/09/04 00:20:44;;;;;;;;;;;;;;;18.64;59.11;101312.69;5007352;28;19920;-58
2022/09/04 00:23:09;;;;;;;;;;;;;;;18.57;59.74;101315.38;5010488;28;19923;-56
2022/09/04 00:25:49;;;;;;;;;;;;;;;18.47;60.38;101315.81;5006608;28;20349;-58
2022/09/04 00:28:29;;;;;;;;;;;;;;;18.42;60.23;101314.78;5007085;28;20290;-58
2022/09/04 00:30:58;;;;;;;;;;;;;;;18.38;59.82;101311.69;5005847;28;20376;-58
2022/09/04 00:33:42;;;;;;;;;;;;;;;18.36;60.37;101313.78;5008901;28;19917;-58
2022/09/04 00:36:08;;;;;;;;;;;;;;;18.33;60.12;101316.06;5009231;28;20284;-58
2022/09/04 00:38:42;;;;;;;;;;;;;;;18.30;60.67;101317.31;5008097;28;19913;-56
2022/09/04 00:41:19;;;;;;;;;;;;;;;18.27;59.97;101313.19;5007189;28;19933;-57
2022/09/04 00:43:55;;;;;;;;;;;;;;;18.27;60.36;101313.19;5008474;28;20420;-58
2022/09/04 00:46:40;;;;;;;;;;;;;;;18.27;60.37;101318.56;5002816;28;21552;-57
2022/09/04 00:49:31;;;;;;;;;;;;;;;18.25;60.70;101326.00;5004428;28;20419;-58
2022/09/04 00:52:15;;;;;;;;;;;;;;;18.23;60.13;101316.50;4992724;28;20399;-58
2022/09/04 00:54:40;;;;;;;;;;;;;;;18.21;60.30;101321.22;5005682;28;20021;-58
2022/09/04 00:57:07;;;;;;;;;;;;;;;18.16;60.58;101327.25;5003807;28;20000;-58
2022/09/04 00:59:50;;;;;;;;;;;;;;;18.10;60.28;101320.03;5003664;28;19993;-58
2022/09/04 01:02:24;;;;;;;;;;;;;;;18.05;60.60;101327.06;5003293;28;20433;-58
2022/09/04 01:04:49;;;;;;;;;;;;;;;18.04;60.32;101333.47;5006140;28;19979;-55
2022/09/04 01:07:23;;;;;;;;;;;;;;;18.02;60.26;101333.69;5004851;28;20004;-57
2022/09/04 01:10:07;;;;;;;;;;;;;;;18.00;60.84;101330.38;5004312;28;20556;-58
2022/09/04 01:12:47;;;;;;;;;;;;;;;17.95;61.20;101335.56;5002879;28;19921;-55
2022/09/04 01:15:15;;;;;;;;;;;;;;;17.90;61.24;101332.63;5002135;28;20017;-58
2022/09/04 01:17:49;;;;;;;;;;;;;;;17.89;60.59;101336.34;5006274;28;19913;-57
2022/09/04 01:20:20;;;;;;;;;;;;;;;17.90;60.57;101340.69;5006063;28;19913;-57
2022/09/04 01:22:51;;;;;;;;;;;;;;;17.92;60.75;101349.38;5003690;28;19952;-58
2022/09/04 01:25:31;;;;;;;;;;;;;;;17.91;60.73;101356.59;5008835;28;20487;-57
2022/09/04 01:28:20;;;;;;;;;;;;;;;17.91;60.91;101355.78;5006021;28;19927;-57
2022/09/04 01:30:50;;;;;;;;;;;;;;;17.88;60.98;101354.34;4997874;28;20545;-58
2022/09/04 01:33:34;;;;;;;;;;;;;;;17.85;61.54;101352.06;5008157;28;19972;-57
2022/09/04 01:36:04;;;;;;;;;;;;;;;17.77;61.27;101360.34;5007291;28;21161;-57
2022/09/04 01:38:39;;;;;;;;;;;;;;;17.71;61.41;101355.78;5007598;28;19920;-58
2022/09/04 01:41:12;;;;;;;;;;;;;;;17.69;62.12;101360.53;5006487;28;19927;-56
2022/09/04 01:43:38;;;;;;;;;;;;;;;17.66;61.83;101363.59;5006060;28;20558;-57
2022/09/04 01:46:22;;;;;;;;;;;;;;;17.63;61.90;101367.50;5006794;28;19931;-58
2022/09/04 01:48:59;;;;;;;;;;;;;;;17.60;61.99;101367.06;5005555;28;20296;-58
2022/09/04 01:51:35;;;;;;;;;;;;;;;17.58;61.79;101366.44;5006165;28;19930;-57
2022/09/04 01:54:06;;;;;;;;;;;;;;;17.57;61.52;101375.53;5006478;28;19933;-58
2022/09/04 01:56:37;;;;;;;;;;;;;;;17.57;62.22;101371.00;5005391;28;19914;-57
2022/09/04 01:59:08;;;;;;;;;;;;;;;17.55;62.22;101373.06;5006558;28;19917;-56
2022/09/04 02:01:40;;;;;;;;;;;;;;;17.53;62.27;101375.13;5003372;28;19913;-58
2022/09/04 02:04:23;;;;;;;;;;;;;;;17.50;62.21;101375.53;5007113;28;19913;-57
2022/09/04 02:07:07;;;;;;;;;;;;;;;17.49;62.55;101386.47;5008452;28;20332;-57
2022/09/04 02:09:44;;;;;;;;;;;;;;;17.44;62.67;101392.47;5008678;28;19913;-57
2022/09/04 02:12:15;;;;;;;;;;;;;;;17.41;63.03;101392.88;5005693;28;19963;-57
2022/09/04 02:14:50;;;;;;;;;;;;;;;17.35;62.47;101393.69;5005060;28;19923;-58
2022/09/04 02:17:19;;;;;;;;;;;;;;;17.25;63.06;101396.72;5005027;28;19920;-57
2022/09/04 02:19:53;;;;;;;;;;;;;;;17.19;63.18;101396.72;5005835;28;19921;-58
2022/09/04 02:22:38;;;;;;;;;;;;;;;17.12;63.43;101395.84;5006059;28;19917;-58
2022/09/04 02:25:04;;;;;;;;;;;;;;;17.01;63.74;101386.50;5006284;28;20870;-56
2022/09/04 02:27:32;;;;;;;;;;;;;;;16.95;63.62;101398.88;5005684;28;20043;-58
2022/09/04 02:30:02;;;;;;;;;;;;;;;16.95;63.08;101398.03;5005103;28;19925;-57
2022/09/04 02:32:47;;;;;;;;;;;;;;;16.96;63.64;101395.16;5004769;28;19922;-57
2022/09/04 02:35:12;;;;;;;;;;;;;;;16.97;63.56;101401.34;5005270;28;19913;-57
2022/09/04 02:37:37;;;;;;;;;;;;;;;16.98;63.39;101411.06;5007775;28;19959;-57
2022/09/04 02:40:12;;;;;;;;;;;;;;;16.96;63.35;101400.53;5006022;28;19917;-57
2022/09/04 02:42:43;;;;;;;;;;;;;;;16.96;63.35;101387.09;5006573;28;19957;-57
2022/09/04 02:45:26;;;;;;;;;;;;;;;16.96;64.18;101405.06;5007593;28;19924;-57
2022/09/04 02:48:03;;;;;;;;;;;;;;;16.98;63.64;101403.00;5005783;28;19960;-57
2022/09/04 02:50:46;;;;;;;;;;;;;;;16.96;63.63;101405.88;5004960;28;19929;-57
2022/09/04 02:53:30;;;;;;;;;;;;;;;16.96;63.85;101405.88;5004248;28;19928;-58
2022/09/04 02:56:15;;;;;;;;;;;;;;;16.96;63.32;101415.78;5004553;28;19913;-55
2022/09/04 02:58:53;;;;;;;;;;;;;;;17.00;63.84;101417.03;4967301;28;20418;-58
2022/09/04 03:01:26;;;;;;;;;;;;;;;17.00;64.40;101417.03;5003902;28;19914;-57
2022/09/04 03:03:53;;;;;;;;;;;;;;;17.01;64.20;101411.47;5007546;28;19936;-56
2022/09/04 03:06:39;;;;;;;;;;;;;;;17.04;64.10;101411.06;5005569;28;20380;-57
2022/09/04 03:09:07;;;;;;;;;;;;;;;17.06;64.41;101415.41;5008086;28;19922;-55
2022/09/04 03:11:37;;;;;;;;;;;;;;;17.07;64.28;101420.63;5008000;28;19917;-57
2022/09/04 03:14:19;;;;;;;;;;;;;;;17.07;63.54;101428.66;5005138;28;19917;-56
2022/09/04 03:16:49;;;;;;;;;;;;;;;17.09;64.16;101431.97;5003449;28;19937;-57
2022/09/04 03:19:18;;;;;;;;;;;;;;;17.06;64.36;101437.75;5003496;28;19983;-58
2022/09/04 03:21:49;;;;;;;;;;;;;;;17.03;64.41;101433.56;5004373;28;19945;-57
2022/09/04 03:24:26;;;;;;;;;;;;;;;17.05;64.64;101438.75;5007332;28;19948;-56
2022/09/04 03:26:53;;;;;;;;;;;;;;;17.07;64.54;101435.88;5005461;28;19913;-56
2022/09/04 03:29:31;;;;;;;;;;;;;;;17.08;64.20;101435.69;5009913;28;20304;-58
2022/09/04 03:32:04;;;;;;;;;;;;;;;17.08;64.70;101435.69;5002884;28;19918;-58
2022/09/04 03:34:29;;;;;;;;;;;;;;;17.08;64.92;101433.00;5005184;28;20364;-58
2022/09/04 03:37:04;;;;;;;;;;;;;;;17.07;64.88;101438.56;5004670;28;19919;-57
2022/09/04 03:40:01;;;;;;;;;;;;;;;16.97;65.15;101439.75;5004309;28;19913;-57
2022/09/04 03:42:38;;;;;;;;;;;;;;;16.85;65.13;101440.50;4960786;28;20576;-57
2022/09/04 03:45:11;;;;;;;;;;;;;;;16.76;64.97;101445.19;5003120;28;19917;-57
2022/09/04 03:47:48;;;;;;;;;;;;;;;16.71;65.10;101444.94;5005421;28;20023;-56
2022/09/04 03:50:25;;;;;;;;;;;;;;;16.69;64.97;101441.63;5004453;28;19913;-58
2022/09/04 03:52:54;;;;;;;;;;;;;;;16.65;65.19;101437.66;5004670;28;19979;-58
2022/09/04 03:55:19;;;;;;;;;;;;;;;16.65;65.37;101446.53;5003719;28;19917;-57
2022/09/04 03:58:01;;;;;;;;;;;;;;;16.65;64.80;101445.69;5005219;28;19936;-57
2022/09/04 04:00:32;;;;;;;;;;;;;;;16.68;64.82;101451.53;5006746;28;19913;-58
2022/09/04 04:03:16;;;;;;;;;;;;;;;16.71;64.82;101450.31;5009014;28;19913;-57
2022/09/04 04:06:04;;;;;;;;;;;;;;;16.68;65.62;101443.47;5006385;28;19913;-58
2022/09/04 04:08:55;;;;;;;;;;;;;;;16.65;66.00;101453.75;5005307;28;19945;-57
2022/09/04 04:11:26;;;;;;;;;;;;;;;16.62;65.61;101459.50;4997272;28;19917;-58
2022/09/04 04:14:10;;;;;;;;;;;;;;;16.63;65.72;101459.31;5006244;28;19912;-58
2022/09/04 04:16:54;;;;;;;;;;;;;;;16.62;65.58;101457.66;5005709;28;19909;-57
2022/09/04 04:19:32;;;;;;;;;;;;;;;16.64;66.17;101466.31;5007594;28;20084;-56
2022/09/04 04:21:57;;;;;;;;;;;;;;;16.65;66.06;101473.34;5004839;28;20067;-56
2022/09/04 04:24:27;;;;;;;;;;;;;;;16.66;66.06;101476.88;5001335;28;20003;-58
2022/09/04 04:27:08;;;;;;;;;;;;;;;16.67;65.99;101475.88;5002371;28;19999;-57
2022/09/04 04:29:38;;;;;;;;;;;;;;;16.67;65.97;101478.53;5005004;28;19913;-57
2022/09/04 04:32:18;;;;;;;;;;;;;;;16.67;66.31;101470.50;5008827;28;19979;-58
2022/09/04 04:34:43;;;;;;;;;;;;;;;16.66;66.27;101475.03;5007452;28;19971;-58
2022/09/04 04:37:20;;;;;;;;;;;;;;;16.63;66.65;101474.56;5008140;28;19914;-57
2022/09/04 04:39:51;;;;;;;;;;;;;;;16.61;66.37;101479.28;5008624;28;19913;-57
2022/09/04 04:42:28;;;;;;;;;;;;;;;16.62;66.30;101480.94;5008594;28;19988;-57
2022/09/04 04:48:08;;;;;;;;;;;;;;;16.62;66.63;101483.63;5005516;28;19968;-57
2022/09/04 04:51:04;;;;;;;;;;;;;;;16.62;67.48;101497.03;5003491;28;19917;-57
2022/09/04 04:53:41;;;;;;;;;;;;;;;16.52;67.35;101499.25;4987785;28;19918;-58
2022/09/04 04:56:18;;;;;;;;;;;;;;;16.52;67.40;101496.56;5010258;28;19921;-54
2022/09/04 04:58:49;;;;;;;;;;;;;;;16.54;67.41;101499.88;5008843;28;19999;-57
2022/09/04 05:01:41;;;;;;;;;;;;;;;16.55;67.61;101498.84;5006860;28;19913;-57
2022/09/04 05:04:21;;;;;;;;;;;;;;;16.57;67.73;101499.47;5005966;28;19976;-57
2022/09/04 05:06:47;;;;;;;;;;;;;;;16.57;68.08;101500.31;5005784;28;19948;-58
2022/09/04 05:09:30;;;;;;;;;;;;;;;16.59;67.90;101509.00;5009579;28;19967;-58
2022/09/04 05:12:02;;;;;;;;;;;;;;;16.60;68.25;101515.19;5005874;28;19939;-57
2022/09/04 05:14:36;;;;;;;;;;;;;;;16.60;68.51;101513.31;5004004;28;19913;-56
2022/09/04 05:17:19;;;;;;;;;;;;;;;16.60;68.47;101509.81;5008246;28;19921;-58
2022/09/04 05:20:02;;;;;;;;;;;;;;;16.60;68.75;101517.88;5006158;28;19971;-58
2022/09/04 05:22:34;;;;;;;;;;;;;;;16.62;68.37;101521.19;5009004;28;19957;-57
2022/09/04 05:24:59;;;;;;;;;;;;;;;16.61;68.62;101527.56;5007281;28;19920;-58
2022/09/04 05:27:30;;;;;;;;;;;;;;;16.60;68.63;101531.28;5007719;28;19925;-57
2022/09/04 05:30:09;;;;;;;;;;;;;;;16.60;69.56;101534.78;5007302;28;19975;-57
2022/09/04 05:32:40;;;;;;;;;;;;;;;16.61;69.47;101541.81;5008969;28;19964;-57
2022/09/04 05:35:13;;;;;;;;;;;;;;;16.64;69.33;101541.41;5008498;28;19913;-57
2022/09/04 05:37:47;;;;;;;;;;;;;;;16.69;69.52;101544.38;5012824;28;19948;-58
2022/09/04 05:40:26;;;;;;;;;;;;;;;16.71;69.06;101549.53;5004935;28;19913;-58
2022/09/04 05:42:51;;;;;;;;;;;;;;;16.75;69.56;101552.66;5004041;28;19913;-56
2022/09/04 05:45:21;;;;;;;;;;;;;;;16.77;69.51;101561.34;5008481;28;19921;-55
2022/09/04 05:48:05;;;;;;;;;;;;;;;16.79;69.71;101567.38;5008034;28;19937;-55
2022/09/04 05:50:31;;;;;;;;;;;;;;;16.80;70.13;101575.22;5008924;28;20328;-57
2022/09/04 05:53:07;;;;;;;;;;;;;;;16.83;70.28;101561.41;5008606;28;20348;-58
2022/09/04 05:55:51;;;;;;;;;;;;;;;16.87;70.75;101568.06;5007949;28;19913;-54
2022/09/04 05:58:22;;;;;;;;;;;;;;;16.95;71.25;101575.13;5003406;28;19914;-56
2022/09/04 06:01:00;;;;;;;;;;;;;;;16.99;71.40;101577.22;5006495;28;19931;-57
2022/09/04 06:03:31;;;;;;;;;;;;;;;17.02;70.94;101587.56;5008060;28;19913;-57
2022/09/04 06:06:05;;;;;;;;;;;;;;;17.09;71.17;101586.81;5005739;28;19959;-54
2022/09/04 06:08:36;;;;;;;;;;;;;;;17.16;71.10;101593.03;5006641;28;20173;-58
2022/09/04 06:11:19;;;;;;;;;;;;;;;17.21;71.50;101591.44;5004799;28;20091;-58
2022/09/04 06:14:03;;;;;;;;;;;;;;;17.28;71.68;101586.09;5006306;28;20403;-56
2022/09/04 06:16:28;;;;;;;;;;;;;;;17.38;72.38;101586.59;5009053;28;19909;-57
2022/09/04 06:19:00;;;;;;;;;;;;;;;17.46;72.20;101589.13;5008272;28;19928;-58
2022/09/04 06:21:25;;;;;;;;;;;;;;;17.55;73.11;101587.91;5002595;28;20535;-58
2022/09/04 06:24:02;;;;;;;;;;;;;;;17.64;73.40;101584.06;5002340;28;19928;-58
2022/09/04 06:26:46;;;;;;;;;;;;;;;17.71;73.08;101578.75;5005528;28;19917;-56
2022/09/04 06:29:11;;;;;;;;;;;;;;;17.75;72.16;101589.94;5006021;28;19917;-58
2022/09/04 06:32:03;;;;;;;;;;;;;;;17.80;71.67;101595.53;5000441;28;19921;-57
2022/09/04 06:34:42;;;;;;;;;;;;;;;17.91;72.69;101594.94;5001560;28;19936;-58
2022/09/04 06:37:19;;;;;;;;;;;;;;;17.94;72.69;101598.09;4998291;28;19932;-58
2022/09/04 06:39:53;;;;;;;;;;;;;;;18.01;73.02;101595.41;5004168;28;19921;-58
2022/09/04 06:42:24;;;;;;;;;;;;;;;18.10;73.22;101604.13;5005058;28;19909;-58
2022/09/04 06:45:03;;;;;;;;;;;;;;;18.14;73.55;101598.13;5003422;28;19917;-57
2022/09/04 06:47:53;;;;;;;;;;;;;;;18.23;73.23;101613.09;5001103;28;19921;-58
2022/09/04 06:50:23;;;;;;;;;;;;;;;18.25;73.26;101602.94;5000222;28;20443;-58
2022/09/04 06:52:58;;;;;;;;;;;;;;;18.32;73.94;101611.03;5003718;28;19917;-58
2022/09/04 06:55:48;;;;;;;;;;;;;;;18.35;73.86;101599.88;5011438;28;19909;-58
2022/09/04 06:58:27;;;;;;;;;;;;;;;18.40;73.30;101613.53;5001345;28;19955;-56
2022/09/04 07:01:07;;;;;;;;;;;;;;;18.44;73.81;101611.25;4998709;28;19921;-57
2022/09/04 07:03:48;;;;;;;;;;;;;;;18.41;73.63;101609.81;5007221;28;19917;-57
2022/09/04 07:06:20;;;;;;;;;;;;;;;18.42;74.31;101610.63;5008999;28;20093;-57
2022/09/04 07:08:55;;;;;;;;;;;;;;;18.41;74.41;101608.97;5003784;28;20003;-57
2022/09/04 07:11:30;;;;;;;;;;;;;;;18.44;73.70;101613.94;5001755;28;19989;-58
2022/09/04 07:13:56;;;;;;;;;;;;;;;18.50;73.87;101615.81;5011604;28;19913;-58
2022/09/04 07:16:38;;;;;;;;;;;;;;;18.56;73.72;101617.72;5008533;28;20419;-57
2022/09/04 07:19:06;;;;;;;;;;;;;;;18.65;74.58;101627.28;5007328;28;19936;-57
2022/09/04 07:21:51;;;;;;;;;;;;;;;18.71;74.25;101621.06;5007962;28;19918;-58
2022/09/04 07:24:16;;;;;;;;;;;;;;;18.77;74.11;101620.25;5004482;28;19917;-57
2022/09/04 07:26:48;;;;;;;;;;;;;;;18.86;74.20;101627.09;5009458;28;19980;-56
2022/09/04 07:29:14;;;;;;;;;;;;;;;18.93;74.72;101627.09;5007555;28;19910;-57
2022/09/04 07:31:51;;;;;;;;;;;;;;;18.99;74.22;101626.25;5009249;28;19909;-57
2022/09/04 07:34:26;;;;;;;;;;;;;;;19.10;73.86;101628.34;5008125;28;19913;-57
2022/09/04 07:37:01;;;;;;;;;;;;;;;19.15;74.53;101630.41;5005148;28;19936;-56
2022/09/04 07:39:35;;;;;;;;;;;;;;;19.12;74.52;101637.06;5010739;28;19916;-58
2022/09/04 07:42:08;;;;;;;;;;;;;;;19.09;74.38;101642.84;5008703;28;19917;-58
2022/09/04 07:44:37;;;;;;;;;;;;;;;19.09;75.10;101642.84;5013745;28;19913;-55
2022/09/04 07:47:21;;;;;;;;;;;;;;;19.12;75.15;101644.31;5003868;28;20387;-57
2022/09/04 07:49:58;;;;;;;;;;;;;;;19.13;75.63;101641.41;5002697;28;19913;-56
2022/09/04 07:52:41;;;;;;;;;;;;;;;19.17;75.45;101655.28;5007929;28;19914;-56
2022/09/04 07:55:12;;;;;;;;;;;;;;;19.24;75.80;101656.09;5004979;28;20423;-56
2022/09/04 07:57:49;;;;;;;;;;;;;;;19.31;75.66;101659.59;5012260;28;19939;-57
2022/09/04 08:00:17;;;;;;;;;;;;;;;19.40;75.79;101666.47;5003046;28;19988;-58
2022/09/04 08:02:48;;;;;;;;;;;;;;;19.48;75.57;101660.00;5007529;28;19917;-57
2022/09/04 08:05:22;;;;;;;;;;;;;;;19.59;74.96;101669.34;5006219;28;19917;-58
2022/09/04 08:07:57;;;;;;;;;;;;;;;19.71;74.77;101659.59;5007498;28;19937;-57
2022/09/04 08:10:30;;;;;;;;;;;;;;;19.82;74.60;101667.03;5008161;28;20265;-58
2022/09/04 08:12:58;;;;;;;;;;;;;;;19.92;74.83;101680.88;5006098;28;19924;-58
2022/09/04 08:15:42;;;;;;;;;;;;;;;19.91;74.42;101676.53;5008786;28;20343;-58
2022/09/04 08:18:26;;;;;;;;;;;;;;;19.96;74.63;101674.06;5003533;28;19992;-58
2022/09/04 08:20:56;;;;;;;;;;;;;;;20.04;74.36;101692.69;4997537;28;19920;-57
2022/09/04 08:23:29;;;;;;;;;;;;;;;20.13;73.66;101679.78;5004202;28;20602;-57
2022/09/04 08:26:13;;;;;;;;;;;;;;;20.26;73.51;101677.06;5004238;28;19925;-58
2022/09/04 08:28:47;;;;;;;;;;;;;;;20.38;73.75;101678.03;5001212;28;20390;-59
2022/09/04 08:31:17;;;;;;;;;;;;;;;20.51;72.93;101679.00;5006082;28;20427;-58
2022/09/04 08:33:56;;;;;;;;;;;;;;;20.59;72.95;101679.63;5002827;28;19925;-58
2022/09/04 08:36:22;;;;;;;;;;;;;;;20.71;72.96;101688.66;5006387;28;19927;-57
2022/09/04 08:38:55;;;;;;;;;;;;;;;20.84;72.83;101695.06;5003653;28;20297;-56
2022/09/04 08:41:38;;;;;;;;;;;;;;;20.96;72.68;101696.00;5008211;28;20356;-57
2022/09/04 08:44:04;;;;;;;;;;;;;;;21.04;72.30;101699.25;5004280;28;19920;-57
2022/09/04 08:46:53;;;;;;;;;;;;;;;21.13;71.80;101701.69;5006413;28;20008;-58
2022/09/04 08:49:35;;;;;;;;;;;;;;;21.18;71.48;101701.88;5002672;28;19917;-58
2022/09/04 08:52:06;;;;;;;;;;;;;;;21.28;71.18;101711.16;5001744;28;19918;-58
2022/09/04 08:54:37;;;;;;;;;;;;;;;21.37;70.96;101706.28;5006757;28;19920;-57
2022/09/04 08:57:22;;;;;;;;;;;;;;;21.46;70.83;101698.75;5005606;28;19914;-58
2022/09/04 08:59:50;;;;;;;;;;;;;;;21.55;70.38;101705.53;5002984;28;20400;-58
2022/09/04 09:02:34;;;;;;;;;;;;;;;21.66;70.28;101707.50;5000758;28;20317;-56
2022/09/04 09:05:00;;;;;;;;;;;;;;;21.75;70.09;101706.16;5000305;28;20011;-58
2022/09/04 09:07:34;;;;;;;;;;;;;;;21.87;69.60;101707.06;5005022;28;19913;-58
2022/09/04 09:10:11;;;;;;;;;;;;;;;21.98;69.49;101705.53;5003748;28;19976;-58
2022/09/04 09:12:49;;;;;;;;;;;;;;;22.10;69.28;101713.72;5004308;28;20435;-56
2022/09/04 09:15:14;;;;;;;;;;;;;;;22.25;68.90;101711.47;5008479;28;19917;-56
2022/09/04 09:17:43;;;;;;;;;;;;;;;22.33;68.58;101704.94;5005591;28;19917;-58
2022/09/04 09:20:28;;;;;;;;;;;;;;;22.49;67.90;101702.41;5002164;28;19924;-58
2022/09/04 09:23:12;;;;;;;;;;;;;;;22.63;67.48;101702.25;5006193;28;20432;-57
2022/09/04 09:25:47;;;;;;;;;;;;;;;22.70;66.20;101709.22;5001391;28;19913;-58
2022/09/04 09:28:19;;;;;;;;;;;;;;;22.76;65.92;101702.88;5004464;28;19959;-58
2022/09/04 09:30:58;;;;;;;;;;;;;;;22.82;65.64;101699.28;5007899;28;19913;-57
2022/09/04 09:33:24;;;;;;;;;;;;;;;22.92;64.94;101698.72;5003303;28;19914;-58
2022/09/04 09:36:10;;;;;;;;;;;;;;;23.03;64.32;101703.34;5005931;28;19909;-56
2022/09/04 09:38:48;;;;;;;;;;;;;;;23.15;64.05;101698.78;4999225;28;20343;-56
2022/09/04 09:41:32;;;;;;;;;;;;;;;23.28;63.78;101699.63;5003835;28;20380;-58
2022/09/04 09:44:10;;;;;;;;;;;;;;;23.48;63.50;101705.53;5006950;28;19909;-57
2022/09/04 09:46:45;;;;;;;;;;;;;;;23.70;63.39;101703.91;5008219;28;20272;-58
2022/09/04 09:49:29;;;;;;;;;;;;;;;23.92;62.91;101706.00;5008537;28;19909;-58
2022/09/04 09:52:12;;;;;;;;;;;;;;;24.10;62.09;101703.97;5011334;28;19909;-58
2022/09/04 09:54:57;;;;;;;;;;;;;;;24.30;61.16;101703.63;5011096;28;20337;-58
2022/09/04 09:57:34;;;;;;;;;;;;;;;24.48;60.27;101705.31;4999026;28;19914;-58
2022/09/04 10:00:01;;;;;;;;;;;;;;;24.59;58.62;101701.75;5009315;28;19916;-58
2022/09/04 10:02:53;;;;;;;;;;;;;;;24.55;58.03;101700.56;5013415;28;19913;-58
2022/09/04 10:05:34;;;;;;;;;;;;;;;24.61;57.78;101704.22;5012013;28;20292;-57
2022/09/04 10:08:09;;;;;;;;;;;;;;;24.80;57.48;101705.63;5005476;28;19921;-58
2022/09/04 10:10:40;;;;;;;;;;;;;;;24.98;56.93;101699.16;5008251;28;19971;-58
2022/09/04 10:13:20;;;;;;;;;;;;;;;25.12;55.80;101695.09;5009531;28;20488;-58
2022/09/04 10:15:58;;;;;;;;;;;;;;;25.29;55.57;101697.81;5011393;28;19909;-57
2022/09/04 10:18:42;;;;;;;;;;;;;;;25.43;56.23;101696.41;5012308;28;20347;-58
2022/09/04 10:21:24;;;;;;;;;;;;;;;25.64;54.86;101709.22;5005960;28;19917;-58
2022/09/04 10:23:49;;;;;;;;;;;;;;;25.63;54.06;101702.16;5007970;28;19965;-58
2022/09/04 10:26:14;;;;;;;;;;;;;;;25.58;53.53;101699.34;5011433;28;19917;-57
2022/09/04 10:28:58;;;;;;;;;;;;;;;25.56;53.68;101700.69;5008755;28;19913;-58
2022/09/04 10:31:23;;;;;;;;;;;;;;;25.67;53.39;101704.41;5011192;28;19919;-58
2022/09/04 10:33:55;;;;;;;;;;;;;;;25.67;52.67;101701.69;5008883;28;19925;-58
2022/09/04 10:36:26;;;;;;;;;;;;;;;25.59;52.84;101705.63;5011894;28;20004;-58
2022/09/04 10:42:16;;;;;;;;;;;;;;;25.22;52.86;101713.47;5002101;28;19923;-57
2022/09/04 10:44:47;;;;;;;;;;;;;;;25.12;52.97;101716.81;4998845;28;19975;-58
2022/09/04 10:47:17;;;;;;;;;;;;;;;24.99;52.83;101717.97;5006207;28;20410;-57
2022/09/04 10:49:51;;;;;;;;;;;;;;;24.89;53.26;101706.91;5007571;28;19913;-57
2022/09/04 10:52:27;;;;;;;;;;;;;;;24.85;53.71;101710.34;5004715;28;19939;-58
2022/09/04 10:55:13;;;;;;;;;;;;;;;24.96;54.03;101713.00;5004476;28;19928;-58
2022/09/04 10:57:54;;;;;;;;;;;;;;;25.14;53.97;101716.59;5006973;28;19917;-58
2022/09/04 11:00:20;;;;;;;;;;;;;;;25.24;53.52;101709.44;5007703;28;20343;-58
2022/09/04 11:03:04;;;;;;;;;;;;;;;25.27;53.42;101708.94;5003408;28;19944;-58
2022/09/04 11:05:34;;;;;;;;;;;;;;;25.41;53.56;101703.97;5006057;28;19913;-57
2022/09/04 11:08:26;;;;;;;;;;;;;;;25.57;52.46;101708.59;5001631;28;19921;-59
2022/09/04 11:11:10;;;;;;;;;;;;;;;25.56;52.51;101706.94;4975764;28;19940;-58
2022/09/04 11:13:55;;;;;;;;;;;;;;;25.70;51.59;101709.34;5008465;28;20380;-58
2022/09/04 11:16:26;;;;;;;;;;;;;;;25.84;50.85;101708.75;5001983;28;19913;-58
2022/09/04 11:19:19;;;;;;;;;;;;;;;26.00;50.11;101706.22;5009842;28;19959;-59
2022/09/04 11:21:57;;;;;;;;;;;;;;;26.23;48.53;101709.50;5003644;28;19921;-58
2022/09/04 11:24:40;;;;;;;;;;;;;;;26.18;47.35;101711.34;5004594;28;19909;-58
2022/09/04 11:27:08;;;;;;;;;;;;;;;25.94;47.24;101713.50;5013018;28;19909;-58
2022/09/04 11:29:54;;;;;;;;;;;;;;;25.89;47.97;101702.53;5011463;28;20319;-58
2022/09/04 11:32:22;;;;;;;;;;;;;;;26.08;48.01;101709.34;5007112;28;20300;-59
2022/09/04 11:35:06;;;;;;;;;;;;;;;26.21;47.72;101702.69;5005876;28;19960;-57
2022/09/04 11:38:03;;;;;;;;;;;;;;;26.31;48.22;101708.28;5019420;28;19908;-59
2022/09/04 11:40:47;;;;;;;;;;;;;;;26.32;46.92;101704.47;4968075;28;19963;-59
2022/09/04 11:43:12;;;;;;;;;;;;;;;26.38;47.16;101711.66;5012686;28;20297;-58
2022/09/04 11:45:52;;;;;;;;;;;;;;;26.48;46.02;101700.03;5004544;28;19923;-58
2022/09/04 11:48:27;;;;;;;;;;;;;;;26.44;45.86;101712.53;5000412;28;19913;-58
2022/09/04 11:51:00;;;;;;;;;;;;;;;26.37;45.91;101712.72;4998702;28;20000;-59
2022/09/04 11:53:39;;;;;;;;;;;;;;;26.35;45.60;101716.78;5005762;28;19921;-58
2022/09/04 11:56:22;;;;;;;;;;;;;;;26.32;45.12;101709.91;5003045;28;19971;-58
2022/09/04 11:58:50;;;;;;;;;;;;;;;26.36;45.47;101705.63;5003071;28;19917;-58
2022/09/04 12:01:25;;;;;;;;;;;;;;;26.46;44.40;101708.47;5003821;28;20596;-59
2022/09/04 12:03:53;;;;;;;;;;;;;;;26.55;45.15;101711.53;5003851;28;20059;-59
2022/09/04 12:06:18;;;;;;;;;;;;;;;26.70;44.50;101711.72;5006249;28;20017;-58
2022/09/04 12:08:54;;;;;;;;;;;;;;;26.82;44.60;101706.09;5005052;28;20448;-58
2022/09/04 12:11:52;;;;;;;;;;;;;;;26.94;44.28;101712.22;5002844;28;19920;-58
2022/09/04 12:14:39;;;;;;;;;;;;;;;27.09;43.44;101719.75;4978049;28;19932;-59
2022/09/04 12:17:25;;;;;;;;;;;;;;;27.04;41.87;101711.53;4988057;28;20261;-59
2022/09/04 12:20:29;;;;;;;;;;;;;;;26.92;41.31;101721.75;5003292;28;19913;-58
2022/09/04 12:22:57;;;;;;;;;;;;;;;26.87;41.22;101717.03;4950290;28;19914;-59
2022/09/04 12:25:31;;;;;;;;;;;;;;;26.90;41.74;101718.47;4942451;28;19929;-58
2022/09/04 12:28:15;;;;;;;;;;;;;;;26.92;41.67;101719.03;4977732;28;19920;-59
2022/09/04 12:30:56;;;;;;;;;;;;;;;26.94;41.26;101720.41;5002126;28;19917;-59
2022/09/04 12:33:41;;;;;;;;;;;;;;;26.96;40.43;101725.59;5006096;28;19931;-59
2022/09/04 12:36:25;;;;;;;;;;;;;;;27.01;39.85;101718.31;5006889;28;19925;-59
2022/09/04 12:39:09;;;;;;;;;;;;;;;27.03;38.68;101718.06;5003348;28;19913;-58
2022/09/04 12:41:41;;;;;;;;;;;;;;;26.94;38.49;101717.69;5002463;28;20299;-59
2022/09/04 12:44:14;;;;;;;;;;;;;;;26.99;38.69;101720.47;5004561;28;20349;-59
2022/09/04 12:46:49;;;;;;;;;;;;;;;27.11;38.34;101717.56;5004896;28;19925;-59
2022/09/04 12:49:28;;;;;;;;;;;;;;;27.25;38.38;101726.16;4999998;28;19928;-60
2022/09/04 12:51:56;;;;;;;;;;;;;;;27.38;37.57;101720.25;5002221;28;20379;-60
2022/09/04 12:54:32;;;;;;;;;;;;;;;27.42;37.39;101719.47;5004779;28;19968;-58
2022/09/04 12:57:10;;;;;;;;;;;;;;;27.49;38.14;101723.91;5000521;28;19913;-58
2022/09/04 12:59:58;;;;;;;;;;;;;;;27.69;38.17;101713.94;5004339;28;19917;-59
2022/09/04 13:02:32;;;;;;;;;;;;;;;27.92;38.18;101720.09;5000559;28;20407;-60
2022/09/04 13:05:17;;;;;;;;;;;;;;;28.14;37.77;101730.84;5005591;28;19913;-59
2022/09/04 13:07:58;;;;;;;;;;;;;;;28.21;36.95;101734.16;5000813;28;19928;-58
2022/09/04 13:10:31;;;;;;;;;;;;;;;28.16;36.70;101721.31;5000145;28;19924;-59
2022/09/04 13:12:59;;;;;;;;;;;;;;;28.06;36.92;101730.28;5006739;28;19917;-59
2022/09/04 13:15:43;;;;;;;;;;;;;;;28.11;37.99;101736.84;5009095;28;19942;-58
2022/09/04 13:18:26;;;;;;;;;;;;;;;28.35;38.12;101721.69;5005620;28;19957;-58
2022/09/04 13:20:57;;;;;;;;;;;;;;;28.43;36.99;101734.00;5006565;28;19913;-58
2022/09/04 13:23:34;;;;;;;;;;;;;;;28.31;36.61;101737.78;5002110;28;19921;-58
2022/09/04 13:26:11;;;;;;;;;;;;;;;28.25;36.87;101724.38;5008951;28;20556;-59